Pecatonica, Illinois
Current Conditions -  °F | °C
As of 5:15 PM on Wednesday 22 Oct 2014 (Local Time) from KFEP Reporting Station
Clear Clear  
Wind Chill: 56°   Ceiling: Unl
Heat Index: 56°   Visibility: 10mi
Dew Point: 35°   Wind: 7mph
Humidity: 45%   Direction: 150°SSE
Pressure: 30.25"   Gusts: NA
Location:  42.31°N, 89.36°W
Report Text: KFEP 222215Z AUTO 15006KT 10SM CLR 13/02 A3025 RMK AO2 T01320015
Loading
Personal Weather Stations






























Interactive Weather Map
Tropical Storm Tracking
New forecast layout! Learn more

10-Day Weather Forecast

Advertisements
Track Severe Weather on mobile